CKS260 PHNL-YSSY
Flight info
| Callsign | CKS260 |
|---|---|
| Flight time | N/A |
| Altitude | 32000 |
| Route | OPIHI3 CHOKO DCT 1916N16209W 1444N16706W 0724N17247W 0452N17438W 0139N17708W 0124S17936W 0151S18000W 0334S17831E 0755S17500E 1151S17151E 1553S16845E 1906S16622E 2350S16316E 2408S16300E 2634S16046E 3020S15742E DCT ABARB DCT RIKNI N774 MARLN |
| Aircraft | B77L/H-SDE1E2E3FGHIJ2J3J4J5M1RWXY/LB1D1 |
Departure
| Time | 2026-05-01 10:08 |
|---|---|
| Airport | Daniel K. Inouye International Airport (PHNL) |
Arrival
| Time | N/A |
|---|---|
| Airport | Sydney Kingsford Smith International Airport (YSSY) |
| Time | Latitude | Longitude | Altitude | Speed | Heading |
|---|---|---|---|---|---|
| 2026-05-01 09:53 | 21.31871 | -157.91591 | 30 ft | 0 kts | 143° |
| 2026-05-01 09:57 | 21.31877 | -157.91595 | 30 ft | 2 kts | 143° |
| 2026-05-01 09:58 | 21.31888 | -157.91605 | 30 ft | 2 kts | 143° |
| 2026-05-01 09:58 | 21.31900 | -157.91614 | 30 ft | 2 kts | 143° |
| 2026-05-01 09:58 | 21.31912 | -157.91623 | 30 ft | 2 kts | 143° |
| 2026-05-01 09:58 | 21.31925 | -157.91634 | 30 ft | 2 kts | 143° |
| 2026-05-01 09:59 | 21.31937 | -157.91643 | 30 ft | 2 kts | 152° |
| 2026-05-01 09:59 | 21.31951 | -157.91649 | 30 ft | 2 kts | 174° |
| 2026-05-01 09:59 | 21.31966 | -157.91647 | 30 ft | 2 kts | 192° |
| 2026-05-01 09:59 | 21.31980 | -157.91643 | 30 ft | 1 kts | 210° |
| 2026-05-01 10:00 | 21.31984 | -157.91640 | 30 ft | 0 kts | 213° |
| 2026-05-01 10:01 | 21.31980 | -157.91643 | 30 ft | 1 kts | 213° |
| 2026-05-01 10:02 | 21.31957 | -157.91660 | 29 ft | 6 kts | 213° |
| 2026-05-01 10:02 | 21.31906 | -157.91698 | 29 ft | 11 kts | 219° |
| 2026-05-01 10:02 | 21.31849 | -157.91771 | 30 ft | 14 kts | 233° |
| 2026-05-01 10:02 | 21.31784 | -157.91864 | 30 ft | 15 kts | 233° |
| 2026-05-01 10:03 | 21.31724 | -157.91950 | 30 ft | 13 kts | 233° |
| 2026-05-01 10:03 | 21.31671 | -157.92023 | 30 ft | 11 kts | 233° |
| 2026-05-01 10:03 | 21.31628 | -157.92084 | 30 ft | 9 kts | 233° |
| 2026-05-01 10:03 | 21.31587 | -157.92143 | 30 ft | 10 kts | 233° |
| 2026-05-01 10:04 | 21.31544 | -157.92204 | 30 ft | 10 kts | 233° |
| 2026-05-01 10:04 | 21.31499 | -157.92270 | 30 ft | 11 kts | 233° |
| 2026-05-01 10:04 | 21.31451 | -157.92337 | 30 ft | 11 kts | 233° |
| 2026-05-01 10:04 | 21.31403 | -157.92404 | 30 ft | 11 kts | 233° |
| 2026-05-01 10:05 | 21.31355 | -157.92473 | 30 ft | 11 kts | 232° |
| 2026-05-01 10:05 | 21.31307 | -157.92540 | 29 ft | 9 kts | 232° |
| 2026-05-01 10:05 | 21.31285 | -157.92592 | 29 ft | 6 kts | 276° |
| 2026-05-01 10:05 | 21.31308 | -157.92630 | 30 ft | 5 kts | 321° |
| 2026-05-01 10:06 | 21.31334 | -157.92651 | 30 ft | 4 kts | 322° |
| 2026-05-01 10:06 | 21.31361 | -157.92673 | 31 ft | 5 kts | 322° |
| 2026-05-01 10:06 | 21.31392 | -157.92690 | 31 ft | 5 kts | 8° |
| 2026-05-01 10:06 | 21.31424 | -157.92668 | 31 ft | 5 kts | 48° |
| 2026-05-01 10:07 | 21.31434 | -157.92654 | 32 ft | 8 kts | 53° |
| 2026-05-01 10:07 | 21.31630 | -157.92375 | 32 ft | 84 kts | 53° |
| 2026-05-01 10:07 | 21.32136 | -157.91658 | 30 ft | 155 kts | 52° |
| 2026-05-01 10:07 | 21.32899 | -157.90578 | 219 ft | 198 kts | 54° |
| 2026-05-01 10:08 | 21.33633 | -157.87939 | 2257 ft | 199 kts | 108° |
| 2026-05-01 10:08 | 21.32786 | -157.86757 | 2826 ft | 218 kts | 139° |
| 2026-05-01 10:08 | 21.31286 | -157.86134 | 3136 ft | 253 kts | 170° |
| 2026-05-01 10:09 | 21.29448 | -157.86403 | 3669 ft | 278 kts | 195° |
| 2026-05-01 10:09 | 21.27657 | -157.87184 | 4471 ft | 284 kts | 199° |
| 2026-05-01 10:09 | 21.25824 | -157.88026 | 4886 ft | 286 kts | 199° |
| 2026-05-01 10:09 | 21.23985 | -157.88905 | 5082 ft | 300 kts | 208° |
| 2026-05-01 10:10 | 21.22499 | -157.90445 | 6080 ft | 298 kts | 238° |
| 2026-05-01 10:10 | 21.21745 | -157.92465 | 6948 ft | 297 kts | 256° |
| 2026-05-01 10:10 | 21.20785 | -157.96745 | 8558 ft | 298 kts | 257° |
| 2026-05-01 10:11 | 21.20311 | -157.98904 | 9328 ft | 299 kts | 258° |
| 2026-05-01 10:11 | 21.19835 | -158.01076 | 10060 ft | 301 kts | 258° |
| 2026-05-01 10:11 | 21.19350 | -158.03290 | 10515 ft | 314 kts | 258° |
| 2026-05-01 10:11 | 21.18841 | -158.05614 | 10892 ft | 330 kts | 258° |
| 2026-05-01 10:12 | 21.18302 | -158.08072 | 11275 ft | 347 kts | 258° |
| 2026-05-01 10:12 | 21.17736 | -158.10649 | 11689 ft | 362 kts | 258° |
| 2026-05-01 10:12 | 21.16543 | -158.16075 | 12538 ft | 391 kts | 258° |
| 2026-05-01 10:13 | 21.15915 | -158.18926 | 12970 ft | 404 kts | 258° |
| 2026-05-01 10:13 | 21.15264 | -158.21876 | 13571 ft | 411 kts | 258° |
| 2026-05-01 10:13 | 21.14598 | -158.24892 | 14282 ft | 416 kts | 258° |
| 2026-05-01 10:14 | 21.13268 | -158.30905 | 15708 ft | 422 kts | 259° |
| 2026-05-01 10:14 | 21.12581 | -158.34007 | 16332 ft | 428 kts | 259° |
| 2026-05-01 10:14 | 21.11894 | -158.37109 | 16900 ft | 434 kts | 259° |
| 2026-05-01 10:14 | 21.11196 | -158.40254 | 17526 ft | 438 kts | 259° |
| 2026-05-01 10:15 | 21.10493 | -158.43420 | 18148 ft | 442 kts | 259° |
| 2026-05-01 10:15 | 21.09771 | -158.46670 | 18731 ft | 448 kts | 259° |
| 2026-05-01 10:15 | 21.09057 | -158.49880 | 19352 ft | 451 kts | 259° |
| 2026-05-01 10:15 | 21.08327 | -158.53154 | 19997 ft | 454 kts | 259° |
| 2026-05-01 10:16 | 21.07596 | -158.56436 | 20627 ft | 456 kts | 260° |
| 2026-05-01 10:16 | 21.06859 | -158.59737 | 21221 ft | 460 kts | 260° |
| 2026-05-01 10:16 | 21.05365 | -158.66422 | 22367 ft | 467 kts | 260° |
| 2026-05-01 10:17 | 21.04606 | -158.69814 | 22877 ft | 471 kts | 260° |
| 2026-05-01 10:17 | 21.03068 | -158.76675 | 24047 ft | 476 kts | 260° |
| 2026-05-01 10:17 | 21.02291 | -158.80133 | 24578 ft | 479 kts | 260° |
| 2026-05-01 10:18 | 21.00728 | -158.87080 | 25644 ft | 486 kts | 260° |
| 2026-05-01 10:18 | 20.99944 | -158.90562 | 26197 ft | 488 kts | 259° |
| 2026-05-01 10:18 | 20.99149 | -158.94086 | 26785 ft | 490 kts | 259° |
| 2026-05-01 10:19 | 20.98344 | -158.97644 | 27335 ft | 493 kts | 259° |
| 2026-05-01 10:19 | 20.97467 | -159.01198 | 27844 ft | 498 kts | 256° |
| 2026-05-01 10:19 | 20.96388 | -159.04726 | 28365 ft | 502 kts | 255° |
| 2026-05-01 10:20 | 20.94165 | -159.11806 | 29409 ft | 507 kts | 255° |
| 2026-05-01 10:20 | 20.93052 | -159.15344 | 30042 ft | 507 kts | 254° |
| 2026-05-01 10:20 | 20.91930 | -159.18912 | 30800 ft | 504 kts | 254° |
| 2026-05-01 10:20 | 20.90827 | -159.22417 | 31604 ft | 499 kts | 254° |
| 2026-05-01 10:21 | 20.89719 | -159.25937 | 32048 ft | 500 kts | 254° |
| 2026-05-01 10:21 | 20.87514 | -159.32941 | 32081 ft | 497 kts | 254° |
| 2026-05-01 10:22 | 20.84209 | -159.43422 | 32084 ft | 497 kts | 254° |
| 2026-05-01 10:23 | 20.80892 | -159.53919 | 32079 ft | 496 kts | 254° |
| 2026-05-01 10:23 | 20.77595 | -159.64328 | 32083 ft | 497 kts | 254° |
| 2026-05-01 10:24 | 20.73161 | -159.78290 | 32084 ft | 497 kts | 253° |
| 2026-05-01 10:25 | 20.68713 | -159.92253 | 32082 ft | 497 kts | 253° |
| 2026-05-01 10:26 | 20.66495 | -159.99196 | 32081 ft | 496 kts | 253° |
| 2026-05-01 10:27 | 20.62032 | -160.13142 | 32081 ft | 497 kts | 253° |
| 2026-05-01 10:28 | 20.58688 | -160.23563 | 32082 ft | 497 kts | 253° |
| 2026-05-01 10:28 | 20.55337 | -160.33978 | 32080 ft | 496 kts | 253° |
| 2026-05-01 10:29 | 20.51981 | -160.44389 | 32078 ft | 496 kts | 253° |
| 2026-05-01 10:30 | 20.47490 | -160.58284 | 32079 ft | 495 kts | 253° |
| 2026-05-01 10:31 | 20.42989 | -160.72163 | 32080 ft | 496 kts | 253° |
| 2026-05-01 10:32 | 20.39613 | -160.82547 | 32077 ft | 496 kts | 253° |
| 2026-05-01 10:32 | 20.36634 | -160.89130 | 32074 ft | 499 kts | 237° |
| 2026-05-01 10:33 | 20.32111 | -160.94795 | 32078 ft | 503 kts | 229° |
| 2026-05-01 10:34 | 20.25007 | -161.02972 | 32076 ft | 503 kts | 229° |
| 2026-05-01 10:34 | 20.20231 | -161.08464 | 32077 ft | 503 kts | 229° |
| 2026-05-01 10:35 | 20.13130 | -161.16618 | 32072 ft | 503 kts | 229° |
| 2026-05-01 10:35 | 20.08366 | -161.22082 | 32072 ft | 502 kts | 229° |
| 2026-05-01 10:36 | 20.01254 | -161.30231 | 32072 ft | 501 kts | 229° |
| 2026-05-01 10:37 | 19.96513 | -161.35657 | 32069 ft | 501 kts | 229° |
| 2026-05-01 10:37 | 19.89405 | -161.43780 | 32071 ft | 501 kts | 229° |
| 2026-05-01 10:38 | 19.84642 | -161.49219 | 32065 ft | 501 kts | 229° |
| 2026-05-01 10:38 | 19.79915 | -161.54610 | 32064 ft | 501 kts | 229° |
| 2026-05-01 10:39 | 19.75159 | -161.60030 | 32060 ft | 500 kts | 229° |
| 2026-05-01 10:39 | 19.70429 | -161.65414 | 32060 ft | 500 kts | 229° |
| 2026-05-01 10:40 | 19.65660 | -161.70839 | 32060 ft | 501 kts | 229° |
| 2026-05-01 10:40 | 19.60914 | -161.76231 | 32060 ft | 500 kts | 229° |
| 2026-05-01 10:41 | 19.56175 | -161.81612 | 32058 ft | 500 kts | 229° |
| 2026-05-01 10:42 | 19.49079 | -161.89658 | 32058 ft | 499 kts | 229° |
| 2026-05-01 10:42 | 19.44316 | -161.95053 | 32055 ft | 500 kts | 229° |
| 2026-05-01 10:43 | 19.39574 | -162.00420 | 32061 ft | 500 kts | 229° |
| 2026-05-01 10:43 | 19.34829 | -162.05783 | 32057 ft | 500 kts | 229° |
| 2026-05-01 10:44 | 19.30079 | -162.11148 | 32055 ft | 498 kts | 229° |
| 2026-05-01 10:44 | 19.25341 | -162.16499 | 32054 ft | 499 kts | 229° |
| 2026-05-01 10:45 | 19.20628 | -162.21848 | 32052 ft | 499 kts | 230° |
| 2026-05-01 10:45 | 19.15906 | -162.27203 | 32053 ft | 498 kts | 230° |
| 2026-05-01 10:46 | 19.11194 | -162.32542 | 32051 ft | 497 kts | 230° |
| 2026-05-01 10:46 | 19.06455 | -162.37906 | 32050 ft | 498 kts | 230° |
| 2026-05-01 10:47 | 19.01742 | -162.43234 | 32050 ft | 497 kts | 230° |